Time;durP1;ratioP1;P1;durP2;ratioP2;P2;SDS_P1;SDS_P2;PMS_P1;PMS_P2;Temp;Humidity;BMP_temperature;BMP_pressure;BME280_temperature;BME280_humidity;BME280_pressure;Samples;Min_cycle;Max_cycle;Signal;HPM_P1;HPM_P2
2023/07/08 00:01:42;;;;;;;13.47;12.10;;;;;;;17.74;66.92;101506.03;4924842;29;20437;-70
2023/07/08 00:04:12;;;;;;;13.80;12.40;;;;;;;17.94;67.10;101509.28;4924463;29;20412;-69
2023/07/08 00:06:41;;;;;;;15.63;12.73;;;;;;;18.02;66.75;101517.16;4936636;29;20803;-69
2023/07/08 00:09:12;;;;;;;12.60;11.47;;;;;;;17.89;65.79;101513.81;4926007;29;20886;-69
2023/07/08 00:11:41;;;;;;;11.20;9.63;;;;;;;17.82;64.88;101524.84;4919389;29;20414;-70
2023/07/08 00:14:10;;;;;;;12.47;11.23;;;;;;;17.69;65.61;101512.22;4920020;29;20442;-70
2023/07/08 00:16:39;;;;;;;13.00;11.70;;;;;;;17.58;66.66;101514.88;4915656;29;20503;-69
2023/07/08 00:19:11;;;;;;;12.60;11.40;;;;;;;17.44;66.83;101516.97;4922563;29;20490;-69
2023/07/08 00:21:41;;;;;;;19.70;11.73;;;;;;;17.52;67.16;101510.38;4915851;29;20450;-69
2023/07/08 00:24:10;;;;;;;12.10;10.80;;;;;;;17.47;66.97;101505.59;4925611;29;20466;-69
2023/07/08 00:26:39;;;;;;;14.73;12.90;;;;;;;17.47;67.14;101508.31;4925502;29;20421;-69
2023/07/08 00:29:11;;;;;;;17.47;11.13;;;;;;;17.38;67.82;101502.31;4918883;29;20438;-69
2023/07/08 00:31:41;;;;;;;12.53;10.90;;;;;;;17.35;68.31;101501.97;4917571;29;20415;-68
2023/07/08 00:34:12;;;;;;;14.50;11.60;;;;;;;17.27;68.26;101507.75;4918879;29;20404;-71
2023/07/08 00:36:41;;;;;;;11.47;10.20;;;;;;;17.23;68.49;101506.56;4923155;29;20830;-70
2023/07/08 00:39:15;;;;;;;11.63;10.63;;;;;;;17.22;69.03;101504.88;4923178;29;20983;-70
2023/07/08 00:41:46;;;;;;;12.10;11.00;;;;;;;17.22;70.21;101505.72;4927050;29;20451;-68
2023/07/08 00:44:15;;;;;;;11.80;10.80;;;;;;;17.12;68.70;101510.06;4924776;29;20485;-69
2023/07/08 00:46:53;;;;;;;13.70;12.00;;;;;;;17.22;67.94;101511.19;4924917;29;20449;-69
2023/07/08 00:49:32;;;;;;;11.77;10.77;;;;;;;17.17;68.72;101512.94;4925320;29;20433;-69
2023/07/08 00:52:21;;;;;;;12.47;10.73;;;;;;;16.98;69.28;101514.03;4923018;29;20430;-69
2023/07/08 00:54:54;;;;;;;13.43;11.10;;;;;;;16.93;70.07;101512.84;4918873;29;20777;-69
2023/07/08 00:57:28;;;;;;;11.70;9.93;;;;;;;17.03;67.32;101508.72;4925187;29;20460;-69
2023/07/08 01:00:12;;;;;;;10.40;9.40;;;;;;;17.26;66.05;101512.41;4919060;29;20524;-70
2023/07/08 01:02:47;;;;;;;10.83;9.27;;;;;;;17.42;65.65;101507.34;4918718;29;20404;-70
2023/07/08 01:05:20;;;;;;;10.00;9.07;;;;;;;17.39;65.40;101506.72;4920436;29;20488;-70
2023/07/08 01:07:55;;;;;;;12.20;9.30;;;;;;;17.41;65.05;101511.97;4917052;29;20474;-69
2023/07/08 01:10:32;;;;;;;10.10;9.10;;;;;;;17.48;64.70;101509.13;4920504;29;20404;-69
2023/07/08 01:13:07;;;;;;;11.10;10.00;;;;;;;17.43;64.98;101514.50;4923898;29;20404;-69
2023/07/08 01:15:41;;;;;;;10.70;9.60;;;;;;;17.38;64.68;101504.22;4915920;29;20400;-70
2023/07/08 01:18:15;;;;;;;11.87;9.10;;;;;;;17.37;64.96;101500.69;4924376;29;20965;-71
2023/07/08 01:20:47;;;;;;;10.57;9.63;;;;;;;17.36;65.14;101501.75;4927518;29;20488;-70
2023/07/08 01:23:18;;;;;;;11.03;9.80;;;;;;;17.41;65.52;101498.31;4920812;29;20420;-70
2023/07/08 01:25:48;;;;;;;11.13;10.00;;;;;;;17.25;66.20;101496.22;4926171;29;20476;-70
2023/07/08 01:28:18;;;;;;;12.13;10.90;;;;;;;17.21;66.92;101497.75;4924976;29;20846;-69
2023/07/08 01:30:49;;;;;;;10.13;9.03;;;;;;;17.08;67.39;101500.66;4931915;29;20449;-69
2023/07/08 01:33:22;;;;;;;10.37;9.40;;;;;;;16.97;67.90;101495.97;4937299;29;20447;-70
2023/07/08 01:35:53;;;;;;;12.57;9.10;;;;;;;16.92;67.97;101497.50;4920868;29;20404;-69
2023/07/08 01:38:27;;;;;;;10.80;9.03;;;;;;;16.91;67.54;101487.59;4920777;29;20479;-70
2023/07/08 01:40:59;;;;;;;11.63;10.47;;;;;;;17.06;67.31;101489.09;4931344;29;20450;-71
2023/07/08 01:43:35;;;;;;;12.00;10.77;;;;;;;17.02;67.82;101485.16;4922787;29;20429;-69
2023/07/08 01:46:05;;;;;;;13.23;12.00;;;;;;;16.93;67.77;101480.03;4923710;29;20516;-69
2023/07/08 01:48:41;;;;;;;13.43;10.57;;;;;;;16.91;67.51;101482.16;4925649;29;20948;-70
2023/07/08 01:51:10;;;;;;;12.30;11.00;;;;;;;16.86;67.52;101478.41;4910308;29;20408;-70
2023/07/08 01:54:06;;;;;;;11.73;10.17;;;;;;;16.78;68.47;101482.31;4926150;29;20425;-70
2023/07/08 01:56:35;;;;;;;12.33;9.40;;;;;;;16.78;69.80;101476.00;4931562;29;20428;-70
2023/07/08 01:59:05;;;;;;;9.47;8.50;;;;;;;17.16;69.55;101473.81;4908836;29;20425;-70
2023/07/08 02:01:34;;;;;;;11.40;10.20;;;;;;;16.89;69.18;101469.78;4909892;29;20517;-70
2023/07/08 02:04:03;;;;;;;11.63;10.47;;;;;;;16.67;69.81;101474.88;4918644;29;20440;-69
2023/07/08 02:06:33;;;;;;;18.97;9.93;;;;;;;16.52;70.75;101479.84;4912878;29;20437;-70
2023/07/08 02:09:21;;;;;;;10.73;9.73;;;;;;;16.46;70.67;101480.75;4916252;29;20434;-70
2023/07/08 02:11:50;;;;;;;9.97;9.07;;;;;;;16.38;70.13;101475.59;4915865;29;20849;-70
2023/07/08 02:14:19;;;;;;;11.43;9.97;;;;;;;16.50;69.82;101479.25;4914147;29;20433;-70
2023/07/08 02:16:49;;;;;;;10.40;9.50;;;;;;;16.45;69.97;101477.19;4919783;29;20457;-69
2023/07/08 02:19:22;;;;;;;11.20;10.17;;;;;;;16.45;70.82;101487.28;4917432;29;20456;-68
2023/07/08 02:21:51;;;;;;;10.33;9.17;;;;;;;16.53;70.43;101479.63;4916806;29;20866;-69
2023/07/08 02:24:22;;;;;;;10.87;9.27;;;;;;;16.33;70.54;101479.00;4923683;29;20508;-69
2023/07/08 02:26:52;;;;;;;11.33;10.23;;;;;;;16.21;70.86;101474.53;4923480;29;20517;-69
2023/07/08 02:29:21;;;;;;;9.83;8.83;;;;;;;16.14;71.21;101473.72;4919427;29;20441;-70
2023/07/08 02:31:50;;;;;;;10.83;9.47;;;;;;;16.26;72.85;101482.88;4925569;29;20425;-69
2023/07/08 02:34:20;;;;;;;11.47;10.27;;;;;;;16.54;71.57;101475.00;4910653;29;20865;-70
2023/07/08 02:36:49;;;;;;;12.23;10.67;;;;;;;16.48;72.15;101479.47;4914777;29;20457;-70
2023/07/08 02:39:18;;;;;;;12.20;11.00;;;;;;;16.72;71.50;101469.56;4922915;29;20535;-70
2023/07/08 02:41:49;;;;;;;12.00;11.00;;;;;;;16.83;71.16;101476.16;4928199;29;21010;-70
2023/07/08 02:44:18;;;;;;;11.70;10.70;;;;;;;16.68;70.06;101473.81;4926690;29;20579;-70
2023/07/08 02:46:47;;;;;;;15.47;12.10;;;;;;;16.52;70.24;101475.22;4922398;29;20461;-67
2023/07/08 02:49:16;;;;;;;11.50;10.20;;;;;;;16.25;71.00;101479.31;4918033;29;20452;-68
2023/07/08 02:51:47;;;;;;;11.50;10.60;;;;;;;16.29;70.85;101476.94;4921135;29;20407;-69
2023/07/08 02:54:16;;;;;;;13.63;12.33;;;;;;;16.15;71.09;101475.41;4919672;29;20445;-69
2023/07/08 02:56:46;;;;;;;11.40;9.97;;;;;;;16.08;71.25;101481.75;4926207;29;20457;-68
2023/07/08 02:59:16;;;;;;;10.03;9.13;;;;;;;16.14;70.95;101479.19;4925406;29;20420;-69
2023/07/08 03:01:46;;;;;;;10.30;9.30;;;;;;;16.02;71.56;101476.38;4939956;29;20469;-70
2023/07/08 03:04:16;;;;;;;11.00;10.00;;;;;;;16.48;71.78;101471.28;4922779;29;20464;-70
2023/07/08 03:06:46;;;;;;;9.67;8.70;;;;;;;16.39;70.22;101477.25;4922661;29;20453;-69
2023/07/08 03:09:15;;;;;;;10.00;9.00;;;;;;;16.55;69.97;101482.16;4922127;29;20511;-70
2023/07/08 03:11:44;;;;;;;9.60;8.70;;;;;;;16.48;68.92;101484.09;4910778;29;20808;-70
2023/07/08 03:14:15;;;;;;;9.30;8.37;;;;;;;16.68;69.47;101471.09;4917705;29;20437;-70
2023/07/08 03:16:44;;;;;;;10.47;8.23;;;;;;;16.46;69.71;101478.84;4919954;29;20482;-70
2023/07/08 03:19:15;;;;;;;10.93;9.00;;;;;;;16.43;70.51;101481.22;4921148;29;20528;-70
2023/07/08 03:21:44;;;;;;;15.53;9.27;;;;;;;16.53;69.95;101476.06;4921661;29;20550;-69
2023/07/08 03:24:17;;;;;;;9.40;8.60;;;;;;;16.79;69.91;101477.69;4924326;28;20963;-69
2023/07/08 03:26:48;;;;;;;9.80;8.43;;;;;;;16.49;69.40;101467.50;4930346;29;20507;-70
2023/07/08 03:29:20;;;;;;;9.00;8.30;;;;;;;16.39;70.03;101478.09;4930856;29;20491;-70
2023/07/08 03:31:50;;;;;;;10.13;9.23;;;;;;;16.30;69.88;101474.00;4916655;29;20450;-70
2023/07/08 03:34:19;;;;;;;10.17;9.27;;;;;;;16.28;69.81;101467.06;4912813;29;20441;-69
2023/07/08 03:36:51;;;;;;;10.43;9.20;;;;;;;16.30;69.89;101471.28;4917975;29;20897;-69
2023/07/08 03:39:26;;;;;;;9.50;8.50;;;;;;;16.54;70.29;101469.53;4928412;28;20420;-69
2023/07/08 03:41:56;;;;;;;8.90;8.20;;;;;;;17.07;67.32;101464.28;4920457;29;20524;-69
2023/07/08 03:44:26;;;;;;;9.40;8.60;;;;;;;17.67;64.53;101459.59;4920667;29;20418;-69
2023/07/08 03:46:56;;;;;;;10.57;9.67;;;;;;;18.67;61.54;101474.06;4935660;29;20967;-69
2023/07/08 03:49:25;;;;;;;14.43;8.70;;;;;;;20.06;56.48;101468.97;4921814;29;20429;-69
2023/07/08 03:51:56;;;;;;;8.13;7.43;;;;;;;20.78;54.10;101471.66;4918269;29;20948;-71
2023/07/08 03:54:27;;;;;;;8.50;7.60;;;;;;;21.40;51.35;101468.53;4933846;29;20564;-70
2023/07/08 03:56:59;;;;;;;9.33;8.40;;;;;;;21.99;49.82;101472.94;4916321;29;20800;-70
2023/07/08 03:59:30;;;;;;;9.20;8.13;;;;;;;22.08;49.45;101473.28;4923364;29;20420;-70
2023/07/08 04:02:00;;;;;;;8.90;7.97;;;;;;;22.51;47.89;101480.47;4910308;29;20437;-69
2023/07/08 04:04:30;;;;;;;11.20;8.20;;;;;;;22.72;47.61;101476.75;4931778;28;20456;-70
2023/07/08 04:06:59;;;;;;;8.80;7.90;;;;;;;23.01;46.80;101481.81;4917083;29;20458;-69
2023/07/08 04:09:29;;;;;;;8.70;8.00;;;;;;;23.51;45.73;101478.41;4916898;29;20485;-68
2023/07/08 04:11:59;;;;;;;7.93;7.23;;;;;;;24.02;44.68;101485.59;4922698;29;20452;-70
2023/07/08 04:14:29;;;;;;;8.30;7.60;;;;;;;24.49;43.47;101488.06;4916510;29;20483;-70
2023/07/08 04:17:00;;;;;;;7.83;7.13;;;;;;;24.69;42.78;101485.22;4924234;29;20464;-69
2023/07/08 04:19:29;;;;;;;9.37;7.90;;;;;;;24.92;42.68;101489.31;4922177;29;20437;-68
2023/07/08 04:21:58;;;;;;;9.37;8.43;;;;;;;25.37;41.52;101485.47;4924790;29;20470;-68
2023/07/08 04:24:28;;;;;;;10.67;9.30;;;;;;;25.38;41.24;101487.13;4923275;29;20412;-68
2023/07/08 04:26:57;;;;;;;7.83;7.13;;;;;;;25.19;41.25;101486.13;4924298;29;20791;-70
2023/07/08 04:29:26;;;;;;;8.73;7.93;;;;;;;25.35;41.11;101490.47;4926252;29;20441;-70
2023/07/08 04:31:56;;;;;;;8.13;6.80;;;;;;;25.51;40.68;101483.72;4937095;29;20499;-70
2023/07/08 04:34:25;;;;;;;8.63;7.93;;;;;;;26.13;39.16;101482.16;4924885;28;20408;-70
2023/07/08 04:36:55;;;;;;;8.60;7.80;;;;;;;25.63;40.57;101482.56;4924904;29;20439;-70
2023/07/08 04:39:24;;;;;;;8.87;8.17;;;;;;;26.12;39.40;101482.44;4918117;29;20441;-70
2023/07/08 04:41:53;;;;;;;9.77;8.77;;;;;;;26.12;39.68;101480.47;4919057;29;20539;-70
2023/07/08 04:44:22;;;;;;;9.20;8.30;;;;;;;26.56;38.62;101485.06;4917877;29;20415;-70
2023/07/08 04:46:55;;;;;;;8.37;7.60;;;;;;;26.75;38.30;101484.00;4919574;29;20427;-70
2023/07/08 04:49:31;;;;;;;8.60;7.83;;;;;;;26.68;38.68;101485.44;4920806;29;20425;-68
2023/07/08 04:52:01;;;;;;;8.70;8.00;;;;;;;26.68;38.86;101488.22;4917114;29;20400;-69
2023/07/08 04:54:31;;;;;;;12.93;7.10;;;;;;;27.16;37.91;101494.59;4927491;29;20414;-69
2023/07/08 04:57:00;;;;;;;7.93;7.27;;;;;;;27.43;36.91;101493.94;4927437;29;20869;-69
2023/07/08 04:59:34;;;;;;;7.93;7.27;;;;;;;28.24;35.85;101501.00;4918443;29;20408;-70
2023/07/08 05:02:05;;;;;;;7.17;6.53;;;;;;;27.77;35.99;101494.56;4920335;29;20448;-70
2023/07/08 05:04:35;;;;;;;8.40;7.43;;;;;;;27.46;36.21;101494.16;4921728;29;20405;-72
2023/07/08 05:07:06;;;;;;;7.93;7.20;;;;;;;27.15;36.89;101496.56;4916167;29;20509;-70
2023/07/08 05:09:35;;;;;;;7.10;6.40;;;;;;;27.54;36.58;101493.53;4921867;29;20514;-70
2023/07/08 05:12:06;;;;;;;7.97;7.27;;;;;;;27.57;36.38;101492.09;4920543;29;20404;-70
2023/07/08 05:14:35;;;;;;;8.40;7.53;;;;;;;27.54;36.42;101501.06;4915501;29;20434;-70
2023/07/08 05:17:06;;;;;;;8.87;7.90;;;;;;;27.73;36.66;101499.06;4920426;29;20499;-69
2023/07/08 05:19:35;;;;;;;9.60;7.53;;;;;;;27.88;36.55;101492.44;4921714;29;20437;-70
2023/07/08 05:22:04;;;;;;;7.53;6.57;;;;;;;28.64;34.69;101497.47;4918631;29;20483;-69
2023/07/08 05:24:34;;;;;;;8.83;8.00;;;;;;;29.01;34.38;101492.81;4921591;29;20400;-70
2023/07/08 05:27:03;;;;;;;7.73;7.03;;;;;;;29.34;33.74;101502.69;4921845;29;20440;-69
2023/07/08 05:29:32;;;;;;;7.10;6.50;;;;;;;29.22;34.33;101499.63;4914432;29;20496;-69
2023/07/08 05:32:01;;;;;;;9.47;6.60;;;;;;;29.18;34.80;101501.38;4918311;29;20403;-68
2023/07/08 05:34:34;;;;;;;7.30;6.80;;;;;;;29.86;33.27;101492.00;4911610;29;20459;-70
2023/07/08 05:37:03;;;;;;;9.90;7.63;;;;;;;29.95;33.25;101498.50;4917174;29;21067;-69
2023/07/08 05:39:33;;;;;;;7.80;7.10;;;;;;;29.23;33.59;101504.88;4927030;29;20430;-70
2023/07/08 05:42:02;;;;;;;7.27;6.63;;;;;;;26.97;37.34;101497.34;4916738;29;20461;-68
2023/07/08 05:44:31;;;;;;;8.00;7.40;;;;;;;24.81;41.74;101495.16;4912375;29;20416;-69
2023/07/08 05:47:01;;;;;;;8.07;7.37;;;;;;;23.56;44.43;101493.06;4912673;29;20573;-69
2023/07/08 05:49:30;;;;;;;7.33;6.73;;;;;;;22.82;47.20;101493.34;4923456;29;20415;-68
2023/07/08 05:52:05;;;;;;;7.63;6.97;;;;;;;22.62;47.44;101495.97;4919172;29;20910;-69
2023/07/08 05:54:34;;;;;;;7.80;6.90;;;;;;;22.42;47.46;101491.16;4922397;29;20493;-70
2023/07/08 05:57:04;;;;;;;6.80;6.20;;;;;;;22.41;47.13;101495.00;4934903;29;20439;-69
2023/07/08 05:59:33;;;;;;;11.80;6.83;;;;;;;22.27;48.19;101495.78;4923449;29;20485;-69
2023/07/08 06:02:04;;;;;;;6.47;5.87;;;;;;;22.32;48.96;101502.13;4923124;29;20504;-69
2023/07/08 06:04:33;;;;;;;10.83;6.70;;;;;;;22.27;48.51;101495.78;4917908;29;20468;-69
2023/07/08 06:07:15;;;;;;;8.20;6.90;;;;;;;22.30;49.21;101500.75;4926976;29;20435;-69
2023/07/08 06:09:46;;;;;;;7.67;7.00;;;;;;;22.36;49.57;101505.22;4902413;29;20444;-64
2023/07/08 06:12:15;;;;;;;7.90;6.90;;;;;;;22.43;48.77;101505.78;4901170;29;20588;-65
2023/07/08 06:14:45;;;;;;;7.40;6.70;;;;;;;22.38;49.11;101508.50;4902237;29;21020;-65
2023/07/08 06:17:14;;;;;;;7.83;6.83;;;;;;;22.50;49.52;101509.16;4893156;29;20458;-65
2023/07/08 06:19:43;;;;;;;6.73;6.00;;;;;;;22.64;48.33;101515.84;4883186;29;20477;-66
2023/07/08 06:22:12;;;;;;;8.13;6.00;;;;;;;22.76;47.88;101510.13;4884414;29;20705;-64
2023/07/08 06:25:03;;;;;;;6.90;6.23;;;;;;;22.79;47.25;101515.13;4892326;29;20533;-66
2023/07/08 06:27:33;;;;;;;8.23;6.70;;;;;;;22.94;46.76;101517.97;4886934;29;20437;-65
2023/07/08 06:30:02;;;;;;;7.27;6.57;;;;;;;23.15;45.73;101516.09;4887552;29;20554;-66
2023/07/08 06:32:31;;;;;;;6.83;6.13;;;;;;;23.30;45.88;101511.47;4893001;29;20494;-64
2023/07/08 06:35:00;;;;;;;6.73;6.03;;;;;;;23.35;44.94;101516.16;4880842;29;20503;-65
2023/07/08 06:37:29;;;;;;;6.83;6.23;;;;;;;23.52;45.01;101518.75;4875867;29;20469;-64
2023/07/08 06:39:59;;;;;;;6.07;5.57;;;;;;;23.64;44.17;101522.91;4893539;29;20615;-66
2023/07/08 06:42:29;;;;;;;9.60;6.00;;;;;;;23.75;44.80;101520.97;4885773;29;20455;-66
2023/07/08 06:45:10;;;;;;;6.83;6.23;;;;;;;23.81;44.55;101523.47;4895105;29;20422;-65
2023/07/08 06:47:39;;;;;;;5.90;5.50;;;;;;;24.00;44.73;101517.41;4887856;29;20455;-65
2023/07/08 06:50:09;;;;;;;7.47;5.60;;;;;;;24.11;44.58;101508.81;4888238;29;20486;-66
2023/07/08 06:52:38;;;;;;;7.90;7.07;;;;;;;24.17;44.43;101510.50;4887018;29;20762;-63
2023/07/08 06:55:09;;;;;;;6.40;5.90;;;;;;;24.11;43.87;101507.97;4892102;29;20440;-66
2023/07/08 06:57:40;;;;;;;7.03;6.33;;;;;;;24.10;44.73;101509.09;4884587;29;21085;-68
2023/07/08 07:00:12;;;;;;;6.60;6.00;;;;;;;24.28;45.01;101511.34;4875313;29;20443;-66
2023/07/08 07:02:41;;;;;;;6.70;6.00;;;;;;;24.43;44.39;101513.25;4874719;29;20566;-65
2023/07/08 07:05:10;;;;;;;7.73;6.90;;;;;;;24.45;45.05;101511.00;4879844;29;20436;-64
2023/07/08 07:07:40;;;;;;;6.50;6.00;;;;;;;24.55;45.02;101509.06;4884446;29;20471;-65
2023/07/08 07:10:09;;;;;;;7.53;6.13;;;;;;;24.62;43.28;101506.84;4885626;29;20840;-66
2023/07/08 07:12:40;;;;;;;10.43;7.77;;;;;;;24.65;43.53;101511.78;4886320;29;20440;-65
2023/07/08 07:15:09;;;;;;;6.50;5.83;;;;;;;24.69;43.57;101514.81;4888060;29;20452;-65
2023/07/08 07:17:39;;;;;;;8.10;6.07;;;;;;;24.73;43.71;101520.66;4887784;29;20998;-67
2023/07/08 07:20:09;;;;;;;7.27;6.10;;;;;;;24.79;43.34;101516.72;4878280;29;20408;-68
2023/07/08 07:22:38;;;;;;;8.30;6.27;;;;;;;24.99;43.62;101516.69;4881636;29;20467;-67
2023/07/08 07:25:08;;;;;;;6.80;6.20;;;;;;;24.92;43.13;101518.94;4880749;29;20439;-66
2023/07/08 07:27:38;;;;;;;7.10;6.60;;;;;;;24.97;43.01;101518.94;4880818;29;20993;-65
2023/07/08 07:30:12;;;;;;;7.13;6.53;;;;;;;25.06;43.18;101520.00;4876580;29;20439;-66
2023/07/08 07:32:42;;;;;;;7.77;7.07;;;;;;;25.29;42.62;101510.19;4882208;29;20447;-63
2023/07/08 07:35:13;;;;;;;6.60;6.00;;;;;;;25.36;42.38;101513.47;4882005;29;20428;-67
2023/07/08 07:37:44;;;;;;;6.83;6.27;;;;;;;25.48;43.13;101508.41;4883136;29;20507;-65
2023/07/08 07:40:15;;;;;;;9.83;6.87;;;;;;;25.61;43.12;101518.06;4881777;29;20800;-65
2023/07/08 07:42:47;;;;;;;7.43;5.77;;;;;;;25.86;42.46;101509.53;4886460;29;20462;-67
2023/07/08 07:45:16;;;;;;;7.03;6.43;;;;;;;25.87;42.22;101506.50;4890075;29;20943;-67
2023/07/08 07:47:45;;;;;;;7.03;6.43;;;;;;;25.90;42.08;101505.91;4876699;29;20434;-66
2023/07/08 07:50:14;;;;;;;6.50;5.90;;;;;;;26.03;41.77;101504.44;4882494;29;20487;-65
2023/07/08 07:52:44;;;;;;;6.37;5.87;;;;;;;25.96;42.15;101510.28;4883734;29;20398;-65
2023/07/08 07:55:15;;;;;;;7.17;6.50;;;;;;;26.06;41.74;101508.53;4878533;29;20530;-65
2023/07/08 07:57:47;;;;;;;7.00;6.40;;;;;;;26.22;41.56;101499.84;4882298;29;20959;-64
2023/07/08 08:00:17;;;;;;;8.57;6.30;;;;;;;26.38;41.78;101506.06;4877791;29;20422;-65
2023/07/08 08:02:46;;;;;;;6.83;6.20;;;;;;;26.56;42.08;101507.25;4880693;29;20506;-65
2023/07/08 08:05:15;;;;;;;6.90;6.40;;;;;;;26.70;41.33;101497.09;4884495;29;20484;-66
2023/07/08 08:07:47;;;;;;;8.63;5.87;;;;;;;26.76;40.81;101498.72;4878776;29;20919;-65
2023/07/08 08:10:17;;;;;;;7.73;7.03;;;;;;;26.91;41.00;101504.09;4878381;29;20982;-65
2023/07/08 08:12:50;;;;;;;6.50;5.90;;;;;;;26.92;40.77;101502.97;4879885;29;20442;-66
2023/07/08 08:15:23;;;;;;;6.57;5.97;;;;;;;27.06;41.02;101505.88;4876789;29;20439;-65
2023/07/08 08:17:52;;;;;;;6.37;5.77;;;;;;;27.09;41.10;101508.88;4882403;29;20485;-67
2023/07/08 08:20:24;;;;;;;6.10;5.60;;;;;;;27.27;40.82;101506.41;4875683;29;20431;-65
2023/07/08 08:22:53;;;;;;;6.83;6.13;;;;;;;27.18;40.73;101504.28;4876002;29;20499;-66
2023/07/08 08:25:24;;;;;;;6.97;6.40;;;;;;;27.30;40.26;101505.81;4876852;29;20481;-65
2023/07/08 08:27:55;;;;;;;6.70;6.03;;;;;;;27.38;39.32;101507.91;4875449;29;20460;-67
2023/07/08 08:30:24;;;;;;;6.07;5.47;;;;;;;27.27;38.68;101510.00;4871826;29;20883;-67
2023/07/08 08:32:53;;;;;;;6.70;6.10;;;;;;;27.39;40.02;101509.56;4875637;29;20956;-64
2023/07/08 08:35:23;;;;;;;6.23;5.23;;;;;;;27.62;38.06;101511.47;4891754;29;20578;-66
2023/07/08 08:37:53;;;;;;;5.10;4.60;;;;;;;27.73;36.81;101510.19;4883852;29;20546;-64
2023/07/08 08:40:22;;;;;;;6.03;5.40;;;;;;;27.81;37.53;101506.72;4876376;29;20436;-66
2023/07/08 08:43:03;;;;;;;5.73;5.23;;;;;;;27.82;36.12;101508.38;4876570;29;20435;-63
2023/07/08 08:45:40;;;;;;;5.50;5.00;;;;;;;27.88;35.57;101515.53;4873410;29;20478;-65
2023/07/08 08:48:19;;;;;;;5.93;5.43;;;;;;;27.98;35.76;101518.09;4880410;29;20547;-64
2023/07/08 08:50:53;;;;;;;5.50;4.87;;;;;;;28.03;36.33;101520.81;4884200;29;20410;-66
2023/07/08 08:53:42;;;;;;;5.63;5.13;;;;;;;28.19;35.22;101517.78;4878517;29;20477;-66
2023/07/08 08:56:21;;;;;;;7.80;5.37;;;;;;;28.15;35.29;101511.19;4879939;29;20479;-67
2023/07/08 08:58:59;;;;;;;6.07;5.53;;;;;;;28.34;35.78;101512.78;4879209;29;20779;-64
2023/07/08 09:01:29;;;;;;;5.70;5.30;;;;;;;28.35;34.76;101513.63;4882950;29;20446;-66
2023/07/08 09:04:06;;;;;;;5.67;5.17;;;;;;;28.49;34.29;101514.47;4874884;29;20479;-68
2023/07/08 09:06:37;;;;;;;5.67;5.10;;;;;;;28.47;34.94;101516.72;4895604;29;20420;-66
2023/07/08 09:09:16;;;;;;;5.40;4.53;;;;;;;28.60;33.94;101518.72;4882452;29;20462;-67
2023/07/08 09:11:53;;;;;;;6.67;4.73;;;;;;;28.80;31.83;101507.22;4875188;29;20428;-67
2023/07/08 09:14:27;;;;;;;8.00;4.70;;;;;;;28.86;30.22;101517.09;4884332;29;20424;-65
2023/07/08 09:17:06;;;;;;;9.77;4.93;;;;;;;28.76;31.48;101511.72;4872633;29;20483;-67
2023/07/08 09:19:43;;;;;;;4.57;4.10;;;;;;;28.74;31.54;101502.88;4875445;29;20558;-66
2023/07/08 09:22:16;;;;;;;5.40;4.57;;;;;;;29.15;31.09;101500.03;4883088;29;20409;-67
2023/07/08 09:24:50;;;;;;;12.40;7.00;;;;;;;29.24;30.57;101508.50;4877850;29;20483;-69
2023/07/08 09:27:19;;;;;;;4.80;4.40;;;;;;;29.18;30.42;101501.38;4882766;29;20469;-66
2023/07/08 09:29:50;;;;;;;5.20;4.70;;;;;;;29.03;29.72;101502.53;4876367;29;20496;-66
2023/07/08 09:32:22;;;;;;;7.43;4.37;;;;;;;29.16;30.04;101503.63;4880961;29;20434;-66
2023/07/08 09:34:53;;;;;;;5.37;4.73;;;;;;;29.44;29.76;101502.47;4877028;29;20502;-67
2023/07/08 09:37:28;;;;;;;5.70;5.10;;;;;;;29.57;27.85;101506.38;4877030;29;20458;-67
2023/07/08 09:39:59;;;;;;;4.63;4.17;;;;;;;29.76;27.37;101495.88;4878700;29;20469;-64
2023/07/08 09:42:30;;;;;;;5.30;4.67;;;;;;;29.95;26.56;101498.50;4880635;29;20487;-67
2023/07/08 09:45:05;;;;;;;5.50;4.70;;;;;;;30.10;27.56;101503.69;4878058;29;20478;-64
2023/07/08 09:47:37;;;;;;;6.00;4.83;;;;;;;29.97;28.30;101501.78;4888738;29;20855;-63
2023/07/08 09:50:19;;;;;;;5.23;4.53;;;;;;;29.59;28.13;101493.75;4871245;29;20855;-65
2023/07/08 09:52:49;;;;;;;7.20;4.57;;;;;;;29.82;28.55;101493.78;4888512;29;20498;-65
2023/07/08 09:55:19;;;;;;;5.10;4.60;;;;;;;29.75;27.08;101492.25;4881817;29;20934;-65
2023/07/08 09:57:51;;;;;;;6.73;4.70;;;;;;;29.76;27.52;101495.88;4883593;29;20466;-64
2023/07/08 10:00:34;;;;;;;6.63;4.67;;;;;;;29.45;27.91;101501.34;4880650;29;20433;-65
2023/07/08 10:03:10;;;;;;;4.40;4.00;;;;;;;29.58;27.73;101497.66;4879924;29;20483;-64
2023/07/08 10:05:42;;;;;;;4.70;4.30;;;;;;;29.72;26.92;101495.69;4879056;29;20991;-66
2023/07/08 10:08:17;;;;;;;5.87;4.73;;;;;;;29.76;27.32;101491.13;4875490;29;20471;-66
2023/07/08 10:10:49;;;;;;;6.03;4.20;;;;;;;29.61;27.28;101497.06;4892729;29;20542;-63
2023/07/08 10:13:23;;;;;;;3.87;3.50;;;;;;;29.83;27.40;101487.03;4876192;29;20949;-67
2023/07/08 10:15:59;;;;;;;8.43;5.10;;;;;;;30.12;28.43;101487.44;4873076;29;20939;-67
2023/07/08 10:18:30;;;;;;;4.23;3.83;;;;;;;30.14;27.12;101496.31;4875702;29;20968;-67
2023/07/08 10:21:09;;;;;;;4.00;3.70;;;;;;;30.01;27.50;101497.22;4874533;29;20437;-65
2023/07/08 10:23:51;;;;;;;5.43;4.93;;;;;;;30.36;27.98;101487.88;4869657;29;20980;-65
2023/07/08 10:26:27;;;;;;;4.70;4.30;;;;;;;30.24;26.05;101484.88;4877327;29;20928;-68
2023/07/08 10:29:14;;;;;;;4.60;4.20;;;;;;;30.06;26.81;101483.97;4875172;29;20516;-65
2023/07/08 10:31:52;;;;;;;4.77;4.37;;;;;;;30.14;26.30;101490.75;4873875;29;20936;-66
2023/07/08 10:34:45;;;;;;;11.67;5.33;;;;;;;30.21;26.60;101485.50;4877901;29;20934;-65
2023/07/08 10:37:24;;;;;;;4.40;4.00;;;;;;;30.34;26.88;101484.63;4876344;29;20463;-64
2023/07/08 10:40:08;;;;;;;5.70;4.80;;;;;;;30.22;26.82;101481.56;4867201;29;20443;-65
2023/07/08 10:42:58;;;;;;;6.50;4.67;;;;;;;29.87;27.31;101488.06;4877529;29;20955;-65
2023/07/08 10:45:32;;;;;;;6.70;4.57;;;;;;;29.65;27.60;101477.72;4878424;29;20471;-66
2023/07/08 10:48:22;;;;;;;3.87;3.57;;;;;;;29.96;27.39;101478.66;4880801;29;20467;-65
2023/07/08 10:51:06;;;;;;;5.13;4.63;;;;;;;30.25;27.20;101480.97;4895266;29;20444;-64
2023/07/08 10:53:52;;;;;;;3.97;3.67;;;;;;;30.16;26.33;101478.09;4883458;29;20686;-66
2023/07/08 10:56:34;;;;;;;5.13;3.80;;;;;;;29.95;25.63;101481.75;4879218;29;20418;-65
2023/07/08 10:59:31;;;;;;;4.90;4.37;;;;;;;30.01;26.01;101475.72;4882692;29;20537;-65
2023/07/08 11:02:19;;;;;;;4.17;3.30;;;;;;;30.19;25.58;101476.66;4881511;29;20446;-66
2023/07/08 11:05:04;;;;;;;8.33;3.60;;;;;;;30.02;26.25;101476.53;4867885;29;20999;-69
2023/07/08 11:07:42;;;;;;;4.73;3.33;;;;;;;30.17;25.24;101471.38;4877299;29;20493;-65
2023/07/08 11:10:17;;;;;;;4.03;3.63;;;;;;;30.26;25.54;101476.19;4877538;29;20828;-66
2023/07/08 11:12:52;;;;;;;4.20;3.80;;;;;;;30.29;25.55;101465.22;4882249;29;21014;-67
2023/07/08 11:15:26;;;;;;;4.63;4.00;;;;;;;30.33;25.40;101448.63;4877406;29;20519;-65
2023/07/08 11:18:00;;;;;;;4.63;4.23;;;;;;;30.47;25.50;101468.94;4877599;29;20497;-67
2023/07/08 11:20:39;;;;;;;4.23;3.83;;;;;;;30.47;25.16;101469.75;4878363;29;20440;-64
2023/07/08 11:23:18;;;;;;;4.33;3.40;;;;;;;30.44;24.81;101461.16;4879835;29;20439;-66
2023/07/08 11:25:49;;;;;;;4.53;4.13;;;;;;;30.36;24.75;101462.75;4875971;29;20994;-67
2023/07/08 11:28:22;;;;;;;4.50;3.63;;;;;;;30.51;24.67;101462.38;4876519;29;20626;-66
2023/07/08 11:30:53;;;;;;;5.37;4.43;;;;;;;30.61;25.00;101456.50;4880155;29;20813;-64
2023/07/08 11:33:26;;;;;;;4.73;3.80;;;;;;;30.71;25.19;101448.97;4878941;29;20439;-66
2023/07/08 11:36:01;;;;;;;4.80;4.20;;;;;;;30.59;24.63;101453.22;4878956;29;20961;-62
2023/07/08 11:38:33;;;;;;;6.47;4.30;;;;;;;30.30;25.30;101450.09;4871937;29;20447;-63
2023/07/08 11:41:12;;;;;;;5.90;4.10;;;;;;;30.53;25.00;101440.53;4875904;29;20970;-65
2023/07/08 11:43:47;;;;;;;4.93;4.50;;;;;;;30.90;25.37;101443.91;4878570;29;20760;-62
2023/07/08 11:46:21;;;;;;;5.03;4.17;;;;;;;30.99;24.69;101439.16;4878407;29;20466;-63